sensor_id;sensor_type;location;lat;lon;timestamp;temperature;humidity
40816;DHT22;26535;48.788;9.214;2024-03-02T00:00:52;6.90;99.90
40816;DHT22;26535;48.788;9.214;2024-03-02T00:03:18;6.80;99.90
40816;DHT22;26535;48.788;9.214;2024-03-02T00:05:49;6.80;99.90
40816;DHT22;26535;48.788;9.214;2024-03-02T00:08:24;6.80;99.90
40816;DHT22;26535;48.788;9.214;2024-03-02T00:10:51;6.80;99.90
40816;DHT22;26535;48.788;9.214;2024-03-02T00:13:20;6.80;99.90
40816;DHT22;26535;48.788;9.214;2024-03-02T06:02:42;3.30;99.90
40816;DHT22;26535;48.788;9.214;2024-03-02T06:05:08;3.30;99.90
40816;DHT22;26535;48.788;9.214;2024-03-02T06:07:34;3.30;99.90
40816;DHT22;26535;48.788;9.214;2024-03-02T06:09:59;3.20;99.90
40816;DHT22;26535;48.788;9.214;2024-03-02T06:12:25;3.30;99.90
40816;DHT22;26535;48.788;9.214;2024-03-02T06:14:51;3.40;99.90
40816;DHT22;26535;48.788;9.214;2024-03-02T06:17:16;3.50;99.90
40816;DHT22;26535;48.788;9.214;2024-03-02T06:19:42;3.50;99.90
40816;DHT22;26535;48.788;9.214;2024-03-02T06:22:08;3.50;99.90
40816;DHT22;26535;48.788;9.214;2024-03-02T06:24:37;3.60;99.90
40816;DHT22;26535;48.788;9.214;2024-03-02T06:27:06;3.60;99.90
40816;DHT22;26535;48.788;9.214;2024-03-02T06:29:35;3.70;99.90
40816;DHT22;26535;48.788;9.214;2024-03-02T06:32:00;3.80;99.90
40816;DHT22;26535;48.788;9.214;2024-03-02T06:34:26;3.90;99.90
40816;DHT22;26535;48.788;9.214;2024-03-02T06:36:52;4.00;99.90
40816;DHT22;26535;48.788;9.214;2024-03-02T06:39:17;4.00;99.90
40816;DHT22;26535;48.788;9.214;2024-03-02T06:41:43;4.00;99.90
40816;DHT22;26535;48.788;9.214;2024-03-02T06:44:09;4.10;99.90
40816;DHT22;26535;48.788;9.214;2024-03-02T06:46:34;4.10;99.90
40816;DHT22;26535;48.788;9.214;2024-03-02T06:49:00;4.20;99.90
40816;DHT22;26535;48.788;9.214;2024-03-02T06:51:27;4.30;99.90
40816;DHT22;26535;48.788;9.214;2024-03-02T06:53:53;4.50;99.90
40816;DHT22;26535;48.788;9.214;2024-03-02T06:56:19;4.50;99.90
40816;DHT22;26535;48.788;9.214;2024-03-02T06:58:44;4.50;99.90
40816;DHT22;26535;48.788;9.214;2024-03-02T07:01:10;4.60;99.90
40816;DHT22;26535;48.788;9.214;2024-03-02T07:03:36;4.60;99.90
40816;DHT22;26535;48.788;9.214;2024-03-02T07:06:01;4.70;99.90
40816;DHT22;26535;48.788;9.214;2024-03-02T07:08:28;4.80;99.90
40816;DHT22;26535;48.788;9.214;2024-03-02T07:10:54;4.80;99.90
40816;DHT22;26535;48.788;9.214;2024-03-02T07:13:19;5.00;99.90
40816;DHT22;26535;48.788;9.214;2024-03-02T07:15:45;5.10;99.90
40816;DHT22;26535;48.788;9.214;2024-03-02T07:18:11;5.30;99.90
40816;DHT22;26535;48.788;9.214;2024-03-02T07:20:36;5.30;99.90
40816;DHT22;26535;48.788;9.214;2024-03-02T07:23:04;5.40;99.90
40816;DHT22;26535;48.788;9.214;2024-03-02T07:25:31;5.50;99.90
40816;DHT22;26535;48.788;9.214;2024-03-02T07:27:56;5.70;99.90
40816;DHT22;26535;48.788;9.214;2024-03-02T07:30:22;5.70;99.90
40816;DHT22;26535;48.788;9.214;2024-03-02T07:32:50;5.80;99.90
40816;DHT22;26535;48.788;9.214;2024-03-02T07:35:16;5.80;99.90
40816;DHT22;26535;48.788;9.214;2024-03-02T07:37:42;5.90;99.90
40816;DHT22;26535;48.788;9.214;2024-03-02T07:40:08;6.10;99.90
40816;DHT22;26535;48.788;9.214;2024-03-02T07:42:40;6.30;99.90
40816;DHT22;26535;48.788;9.214;2024-03-02T07:45:06;6.50;99.90
40816;DHT22;26535;48.788;9.214;2024-03-02T07:47:34;6.50;99.90
40816;DHT22;26535;48.788;9.214;2024-03-02T07:50:00;6.50;99.90
40816;DHT22;26535;48.788;9.214;2024-03-02T07:52:26;6.50;99.90
40816;DHT22;26535;48.788;9.214;2024-03-02T07:54:51;6.40;99.90
40816;DHT22;26535;48.788;9.214;2024-03-02T07:57:17;6.40;99.90
40816;DHT22;26535;48.788;9.214;2024-03-02T07:59:43;6.40;99.90
40816;DHT22;26535;48.788;9.214;2024-03-02T08:02:08;6.40;99.90
40816;DHT22;26535;48.788;9.214;2024-03-02T08:04:34;6.30;99.90
40816;DHT22;26535;48.788;9.214;2024-03-02T08:07:01;6.40;99.90
40816;DHT22;26535;48.788;9.214;2024-03-02T08:09:27;6.50;99.90
40816;DHT22;26535;48.788;9.214;2024-03-02T08:11:52;6.50;99.90
40816;DHT22;26535;48.788;9.214;2024-03-02T08:14:18;6.60;99.90
40816;DHT22;26535;48.788;9.214;2024-03-02T08:16:44;6.60;99.90
40816;DHT22;26535;48.788;9.214;2024-03-02T08:19:11;6.60;99.90
40816;DHT22;26535;48.788;9.214;2024-03-02T08:21:37;6.60;99.90
40816;DHT22;26535;48.788;9.214;2024-03-02T08:24:03;6.70;99.90
40816;DHT22;26535;48.788;9.214;2024-03-02T08:26:29;6.80;99.90
40816;DHT22;26535;48.788;9.214;2024-03-02T08:28:57;6.90;99.90
40816;DHT22;26535;48.788;9.214;2024-03-02T08:31:23;6.90;99.90
40816;DHT22;26535;48.788;9.214;2024-03-02T08:33:48;7.00;99.90
40816;DHT22;26535;48.788;9.214;2024-03-02T08:36:14;7.10;99.90
40816;DHT22;26535;48.788;9.214;2024-03-02T08:38:41;7.30;99.90
40816;DHT22;26535;48.788;9.214;2024-03-02T08:41:07;7.40;99.90
40816;DHT22;26535;48.788;9.214;2024-03-02T08:43:34;7.50;99.90
40816;DHT22;26535;48.788;9.214;2024-03-02T08:45:59;7.60;99.90
40816;DHT22;26535;48.788;9.214;2024-03-02T08:48:25;7.80;99.90
40816;DHT22;26535;48.788;9.214;2024-03-02T08:50:51;7.90;99.90
40816;DHT22;26535;48.788;9.214;2024-03-02T08:53:16;8.10;99.90
40816;DHT22;26535;48.788;9.214;2024-03-02T08:55:48;8.30;99.90
40816;DHT22;26535;48.788;9.214;2024-03-02T08:58:14;8.40;99.90
40816;DHT22;26535;48.788;9.214;2024-03-02T09:00:40;8.60;99.90
40816;DHT22;26535;48.788;9.214;2024-03-02T09:03:07;8.80;99.90
40816;DHT22;26535;48.788;9.214;2024-03-02T09:05:32;8.90;99.90
40816;DHT22;26535;48.788;9.214;2024-03-02T09:07:58;9.00;99.90
40816;DHT22;26535;48.788;9.214;2024-03-02T09:10:24;9.10;99.90
40816;DHT22;26535;48.788;9.214;2024-03-02T09:12:50;9.20;99.90
40816;DHT22;26535;48.788;9.214;2024-03-02T09:15:15;9.30;99.90
40816;DHT22;26535;48.788;9.214;2024-03-02T09:17:41;9.40;99.90
40816;DHT22;26535;48.788;9.214;2024-03-02T09:20:07;9.40;99.90
40816;DHT22;26535;48.788;9.214;2024-03-02T09:22:33;9.50;99.90
40816;DHT22;26535;48.788;9.214;2024-03-02T09:24:59;9.70;99.90
40816;DHT22;26535;48.788;9.214;2024-03-02T09:27:24;9.90;99.90
40816;DHT22;26535;48.788;9.214;2024-03-02T09:29:50;9.90;99.90
40816;DHT22;26535;48.788;9.214;2024-03-02T09:32:16;10.00;99.90
40816;DHT22;26535;48.788;9.214;2024-03-02T09:34:42;10.10;99.90
40816;DHT22;26535;48.788;9.214;2024-03-02T09:37:08;10.20;99.90
40816;DHT22;26535;48.788;9.214;2024-03-02T09:39:34;10.40;99.40
40816;DHT22;26535;48.788;9.214;2024-03-02T09:42:00;10.50;98.60
40816;DHT22;26535;48.788;9.214;2024-03-02T09:44:26;10.60;98.50
40816;DHT22;26535;48.788;9.214;2024-03-02T09:46:52;10.60;98.10
40816;DHT22;26535;48.788;9.214;2024-03-02T09:49:18;10.70;97.10
40816;DHT22;26535;48.788;9.214;2024-03-02T09:51:47;10.90;97.30
40816;DHT22;26535;48.788;9.214;2024-03-02T09:54:15;11.00;97.10
40816;DHT22;26535;48.788;9.214;2024-03-02T09:56:41;11.10;96.70
40816;DHT22;26535;48.788;9.214;2024-03-02T09:59:07;11.20;96.70
40816;DHT22;26535;48.788;9.214;2024-03-02T10:01:33;11.30;96.00
40816;DHT22;26535;48.788;9.214;2024-03-02T10:03:59;11.40;96.00
40816;DHT22;26535;48.788;9.214;2024-03-02T10:06:26;11.60;95.80
40816;DHT22;26535;48.788;9.214;2024-03-02T10:08:54;11.70;95.40
40816;DHT22;26535;48.788;9.214;2024-03-02T10:11:31;11.80;95.10
40816;DHT22;26535;48.788;9.214;2024-03-02T10:14:08;11.80;95.00
40816;DHT22;26535;48.788;9.214;2024-03-02T10:16:35;11.90;94.50
40816;DHT22;26535;48.788;9.214;2024-03-02T10:21:45;12.10;94.20
40816;DHT22;26535;48.788;9.214;2024-03-02T10:24:11;12.20;93.80
40816;DHT22;26535;48.788;9.214;2024-03-02T10:26:38;12.30;93.70
40816;DHT22;26535;48.788;9.214;2024-03-02T10:29:04;12.40;93.30
40816;DHT22;26535;48.788;9.214;2024-03-02T10:31:30;12.40;92.90
40816;DHT22;26535;48.788;9.214;2024-03-02T10:33:57;12.60;92.90
40816;DHT22;26535;48.788;9.214;2024-03-02T10:36:23;12.70;92.90
40816;DHT22;26535;48.788;9.214;2024-03-02T10:38:49;12.70;92.50
40816;DHT22;26535;48.788;9.214;2024-03-02T10:41:18;12.90;92.30
40816;DHT22;26535;48.788;9.214;2024-03-02T10:43:44;12.90;92.20
40816;DHT22;26535;48.788;9.214;2024-03-02T10:46:11;13.10;92.00
40816;DHT22;26535;48.788;9.214;2024-03-02T10:48:39;13.30;91.70
40816;DHT22;26535;48.788;9.214;2024-03-02T10:51:06;13.40;91.00
40816;DHT22;26535;48.788;9.214;2024-03-02T10:53:32;13.50;90.90
40816;DHT22;26535;48.788;9.214;2024-03-02T10:55:58;13.70;90.70
40816;DHT22;26535;48.788;9.214;2024-03-02T10:58:32;13.80;90.60
40816;DHT22;26535;48.788;9.214;2024-03-02T11:01:04;14.00;90.40
40816;DHT22;26535;48.788;9.214;2024-03-02T11:03:33;14.20;89.70
40816;DHT22;26535;48.788;9.214;2024-03-02T11:06:00;14.40;89.10
40816;DHT22;26535;48.788;9.214;2024-03-02T11:08:33;14.70;88.60
40816;DHT22;26535;48.788;9.214;2024-03-02T11:11:09;15.00;87.70
40816;DHT22;26535;48.788;9.214;2024-03-02T11:13:44;15.20;85.40
40816;DHT22;26535;48.788;9.214;2024-03-02T11:16:24;15.60;84.70
40816;DHT22;26535;48.788;9.214;2024-03-02T11:18:52;16.00;83.60
40816;DHT22;26535;48.788;9.214;2024-03-02T11:21:18;16.40;82.50
40816;DHT22;26535;48.788;9.214;2024-03-02T11:23:44;17.00;81.10
40816;DHT22;26535;48.788;9.214;2024-03-02T11:26:17;17.40;77.20
40816;DHT22;26535;48.788;9.214;2024-03-02T11:28:46;18.00;77.30
40816;DHT22;26535;48.788;9.214;2024-03-02T11:31:12;18.80;75.50
40816;DHT22;26535;48.788;9.214;2024-03-02T11:33:38;19.00;73.70
40816;DHT22;26535;48.788;9.214;2024-03-02T11:36:06;19.70;71.80
40816;DHT22;26535;48.788;9.214;2024-03-02T11:38:33;20.30;71.00
40816;DHT22;26535;48.788;9.214;2024-03-02T11:41:05;21.00;68.80
40816;DHT22;26535;48.788;9.214;2024-03-02T11:43:32;21.20;67.30
40816;DHT22;26535;48.788;9.214;2024-03-02T11:46:03;21.70;66.30
40816;DHT22;26535;48.788;9.214;2024-03-02T11:48:32;22.00;64.90
40816;DHT22;26535;48.788;9.214;2024-03-02T11:50:59;22.50;63.20
40816;DHT22;26535;48.788;9.214;2024-03-02T11:53:27;22.90;62.00
40816;DHT22;26535;48.788;9.214;2024-03-02T11:55:58;22.90;60.60
40816;DHT22;26535;48.788;9.214;2024-03-02T11:58:25;22.70;59.60
40816;DHT22;26535;48.788;9.214;2024-03-02T12:00:56;23.00;59.40
40816;DHT22;26535;48.788;9.214;2024-03-02T12:03:25;23.20;59.60
40816;DHT22;26535;48.788;9.214;2024-03-02T12:05:53;23.10;58.60
40816;DHT22;26535;48.788;9.214;2024-03-02T12:08:20;23.10;58.50
40816;DHT22;26535;48.788;9.214;2024-03-02T12:11:01;23.30;58.10
40816;DHT22;26535;48.788;9.214;2024-03-02T12:13:36;23.40;57.20
40816;DHT22;26535;48.788;9.214;2024-03-02T12:16:05;23.20;56.70
40816;DHT22;26535;48.788;9.214;2024-03-02T12:18:31;23.20;57.10
40816;DHT22;26535;48.788;9.214;2024-03-02T12:20:57;23.40;56.40
40816;DHT22;26535;48.788;9.214;2024-03-02T12:23:36;24.00;56.30
40816;DHT22;26535;48.788;9.214;2024-03-02T12:26:06;24.70;55.00
40816;DHT22;26535;48.788;9.214;2024-03-02T12:28:33;24.30;56.40
40816;DHT22;26535;48.788;9.214;2024-03-02T12:30:59;24.30;54.50
40816;DHT22;26535;48.788;9.214;2024-03-02T12:33:25;24.50;54.90
40816;DHT22;26535;48.788;9.214;2024-03-02T12:36:21;25.30;54.00
40816;DHT22;26535;48.788;9.214;2024-03-02T12:38:48;25.60;53.60
40816;DHT22;26535;48.788;9.214;2024-03-02T12:41:17;26.20;52.60
40816;DHT22;26535;48.788;9.214;2024-03-02T12:43:42;26.20;52.30
40816;DHT22;26535;48.788;9.214;2024-03-02T12:46:08;26.70;51.70
40816;DHT22;26535;48.788;9.214;2024-03-02T12:48:35;26.70;51.90
40816;DHT22;26535;48.788;9.214;2024-03-02T12:51:01;27.40;51.10
40816;DHT22;26535;48.788;9.214;2024-03-02T12:53:27;27.80;49.70
40816;DHT22;26535;48.788;9.214;2024-03-02T12:55:53;28.30;49.90
40816;DHT22;26535;48.788;9.214;2024-03-02T12:58:22;28.20;48.80
40816;DHT22;26535;48.788;9.214;2024-03-02T13:00:48;28.00;49.70
40816;DHT22;26535;48.788;9.214;2024-03-02T13:03:14;28.60;49.30
40816;DHT22;26535;48.788;9.214;2024-03-02T13:05:41;29.30;47.60
40816;DHT22;26535;48.788;9.214;2024-03-02T13:08:06;28.90;47.60
40816;DHT22;26535;48.788;9.214;2024-03-02T13:10:33;28.60;47.50
40816;DHT22;26535;48.788;9.214;2024-03-02T13:12:59;29.20;47.50
40816;DHT22;26535;48.788;9.214;2024-03-02T13:15:26;30.50;48.30
40816;DHT22;26535;48.788;9.214;2024-03-02T13:17:52;30.40;45.50
40816;DHT22;26535;48.788;9.214;2024-03-02T13:20:18;30.20;45.80
40816;DHT22;26535;48.788;9.214;2024-03-02T13:22:45;30.10;45.50
40816;DHT22;26535;48.788;9.214;2024-03-02T13:25:11;30.60;45.70
40816;DHT22;26535;48.788;9.214;2024-03-02T13:27:37;31.20;45.00
40816;DHT22;26535;48.788;9.214;2024-03-02T13:30:03;31.20;46.30
40816;DHT22;26535;48.788;9.214;2024-03-02T13:32:31;31.50;44.10
40816;DHT22;26535;48.788;9.214;2024-03-02T13:34:57;31.40;44.70
40816;DHT22;26535;48.788;9.214;2024-03-02T13:37:23;31.80;44.10
40816;DHT22;26535;48.788;9.214;2024-03-02T13:39:49;31.70;43.70
40816;DHT22;26535;48.788;9.214;2024-03-02T13:42:15;31.60;44.30
40816;DHT22;26535;48.788;9.214;2024-03-02T13:44:44;31.50;44.40
40816;DHT22;26535;48.788;9.214;2024-03-02T13:47:15;32.40;43.50
40816;DHT22;26535;48.788;9.214;2024-03-02T13:49:41;33.00;44.50
40816;DHT22;26535;48.788;9.214;2024-03-02T13:52:10;34.10;45.40
40816;DHT22;26535;48.788;9.214;2024-03-02T13:54:40;34.20;42.40
40816;DHT22;26535;48.788;9.214;2024-03-02T13:57:07;33.40;42.30
40816;DHT22;26535;48.788;9.214;2024-03-02T13:59:36;33.70;41.70
40816;DHT22;26535;48.788;9.214;2024-03-02T14:02:03;33.80;41.50
40816;DHT22;26535;48.788;9.214;2024-03-02T14:04:31;34.20;44.80
40816;DHT22;26535;48.788;9.214;2024-03-02T14:06:57;34.50;40.50
40816;DHT22;26535;48.788;9.214;2024-03-02T14:09:23;34.30;41.10
40816;DHT22;26535;48.788;9.214;2024-03-02T14:11:50;34.10;41.10
40816;DHT22;26535;48.788;9.214;2024-03-02T14:14:17;34.10;42.40
40816;DHT22;26535;48.788;9.214;2024-03-02T14:16:42;33.60;41.30
40816;DHT22;26535;48.788;9.214;2024-03-02T14:19:08;33.20;41.90
40816;DHT22;26535;48.788;9.214;2024-03-02T14:21:35;32.80;41.80
40816;DHT22;26535;48.788;9.214;2024-03-02T14:24:01;32.10;41.30
40816;DHT22;26535;48.788;9.214;2024-03-02T14:26:27;32.80;43.30
40816;DHT22;26535;48.788;9.214;2024-03-02T14:28:54;33.70;45.80
40816;DHT22;26535;48.788;9.214;2024-03-02T14:31:20;33.40;40.90
40816;DHT22;26535;48.788;9.214;2024-03-02T14:33:46;33.00;43.00
40816;DHT22;26535;48.788;9.214;2024-03-02T14:36:12;33.10;40.90
40816;DHT22;26535;48.788;9.214;2024-03-02T14:38:38;33.20;41.60
40816;DHT22;26535;48.788;9.214;2024-03-02T14:41:04;32.90;41.00
40816;DHT22;26535;48.788;9.214;2024-03-02T14:43:30;32.00;41.10
40816;DHT22;26535;48.788;9.214;2024-03-02T14:45:56;32.30;40.60
40816;DHT22;26535;48.788;9.214;2024-03-02T14:48:22;32.30;42.20
40816;DHT22;26535;48.788;9.214;2024-03-02T14:50:48;32.10;43.00
40816;DHT22;26535;48.788;9.214;2024-03-02T14:53:14;31.90;41.20
40816;DHT22;26535;48.788;9.214;2024-03-02T14:55:40;32.00;41.70
40816;DHT22;26535;48.788;9.214;2024-03-02T14:58:05;32.40;40.50
40816;DHT22;26535;48.788;9.214;2024-03-02T15:00:31;31.40;43.60
40816;DHT22;26535;48.788;9.214;2024-03-02T15:02:57;30.40;41.00
40816;DHT22;26535;48.788;9.214;2024-03-02T15:05:23;29.70;42.30
40816;DHT22;26535;48.788;9.214;2024-03-02T15:07:52;30.20;41.60
40816;DHT22;26535;48.788;9.214;2024-03-02T15:10:18;29.80;41.70
40816;DHT22;26535;48.788;9.214;2024-03-02T15:12:44;29.40;43.00
40816;DHT22;26535;48.788;9.214;2024-03-02T15:15:10;29.00;41.60
40816;DHT22;26535;48.788;9.214;2024-03-02T15:17:37;28.50;42.10
40816;DHT22;26535;48.788;9.214;2024-03-02T15:20:02;28.70;42.60
40816;DHT22;26535;48.788;9.214;2024-03-02T15:22:30;28.50;44.50
40816;DHT22;26535;48.788;9.214;2024-03-02T15:24:55;28.60;43.30
40816;DHT22;26535;48.788;9.214;2024-03-02T15:27:21;27.70;44.20
40816;DHT22;26535;48.788;9.214;2024-03-02T15:29:47;26.80;46.20
40816;DHT22;26535;48.788;9.214;2024-03-02T15:32:15;26.10;45.30
40816;DHT22;26535;48.788;9.214;2024-03-02T15:34:41;25.40;46.60
40816;DHT22;26535;48.788;9.214;2024-03-02T15:37:08;24.70;47.00
40816;DHT22;26535;48.788;9.214;2024-03-02T15:39:34;24.10;46.80
40816;DHT22;26535;48.788;9.214;2024-03-02T15:42:00;23.10;48.10
40816;DHT22;26535;48.788;9.214;2024-03-02T15:44:25;22.30;49.30
40816;DHT22;26535;48.788;9.214;2024-03-02T15:46:51;21.90;53.50
40816;DHT22;26535;48.788;9.214;2024-03-02T15:49:17;21.30;51.20
40816;DHT22;26535;48.788;9.214;2024-03-02T15:51:43;21.10;51.80
40816;DHT22;26535;48.788;9.214;2024-03-02T15:54:10;20.60;52.10
40816;DHT22;26535;48.788;9.214;2024-03-02T15:56:37;20.00;52.70
40816;DHT22;26535;48.788;9.214;2024-03-02T15:59:03;19.50;53.80
40816;DHT22;26535;48.788;9.214;2024-03-02T16:01:34;19.10;54.60
40816;DHT22;26535;48.788;9.214;2024-03-02T16:04:00;18.80;55.50
40816;DHT22;26535;48.788;9.214;2024-03-02T16:06:32;18.50;56.60
40816;DHT22;26535;48.788;9.214;2024-03-02T16:09:10;18.20;57.10
40816;DHT22;26535;48.788;9.214;2024-03-02T16:11:45;18.10;58.80
40816;DHT22;26535;48.788;9.214;2024-03-02T16:14:35;18.10;59.90
40816;DHT22;26535;48.788;9.214;2024-03-02T16:17:01;18.00;61.50
40816;DHT22;26535;48.788;9.214;2024-03-02T16:19:27;17.80;59.40
40816;DHT22;26535;48.788;9.214;2024-03-02T16:21:56;17.60;60.00
40816;DHT22;26535;48.788;9.214;2024-03-02T16:24:21;17.30;61.10
40816;DHT22;26535;48.788;9.214;2024-03-02T16:26:47;17.00;62.00
40816;DHT22;26535;48.788;9.214;2024-03-02T16:29:12;16.70;62.80
40816;DHT22;26535;48.788;9.214;2024-03-02T16:31:39;16.40;64.00
40816;DHT22;26535;48.788;9.214;2024-03-02T16:34:06;16.30;65.60
40816;DHT22;26535;48.788;9.214;2024-03-02T16:36:32;16.20;65.20
40816;DHT22;26535;48.788;9.214;2024-03-02T16:39:08;16.10;66.60
40816;DHT22;26535;48.788;9.214;2024-03-02T16:41:37;16.00;66.30
40816;DHT22;26535;48.788;9.214;2024-03-02T16:44:06;15.90;67.30
40816;DHT22;26535;48.788;9.214;2024-03-02T16:46:32;15.70;67.80
40816;DHT22;26535;48.788;9.214;2024-03-02T16:48:57;15.70;68.10
40816;DHT22;26535;48.788;9.214;2024-03-02T16:51:24;15.60;68.10
40816;DHT22;26535;48.788;9.214;2024-03-02T16:53:49;15.40;68.90
40816;DHT22;26535;48.788;9.214;2024-03-02T16:56:15;15.30;69.50
40816;DHT22;26535;48.788;9.214;2024-03-02T16:58:41;15.20;70.40
40816;DHT22;26535;48.788;9.214;2024-03-02T17:01:10;15.10;71.50
40816;DHT22;26535;48.788;9.214;2024-03-02T17:03:45;15.10;71.70
40816;DHT22;26535;48.788;9.214;2024-03-02T17:06:52;14.90;72.50
40816;DHT22;26535;48.788;9.214;2024-03-02T17:09:18;14.80;72.50
40816;DHT22;26535;48.788;9.214;2024-03-02T17:11:47;14.70;73.70
40816;DHT22;26535;48.788;9.214;2024-03-02T17:14:16;14.60;74.10
40816;DHT22;26535;48.788;9.214;2024-03-02T17:16:41;14.50;74.60
40816;DHT22;26535;48.788;9.214;2024-03-02T17:19:07;14.50;76.20
40816;DHT22;26535;48.788;9.214;2024-03-02T17:21:44;14.40;76.60
40816;DHT22;26535;48.788;9.214;2024-03-02T17:24:19;14.40;77.10
40816;DHT22;26535;48.788;9.214;2024-03-02T17:26:44;14.40;77.30
40816;DHT22;26535;48.788;9.214;2024-03-02T17:29:11;14.30;78.20
40816;DHT22;26535;48.788;9.214;2024-03-02T17:31:37;14.30;78.30
40816;DHT22;26535;48.788;9.214;2024-03-02T17:34:03;14.10;79.20
40816;DHT22;26535;48.788;9.214;2024-03-02T17:36:29;14.10;79.40
40816;DHT22;26535;48.788;9.214;2024-03-02T17:38:54;14.00;79.80
40816;DHT22;26535;48.788;9.214;2024-03-02T17:41:21;14.00;80.30
40816;DHT22;26535;48.788;9.214;2024-03-02T17:43:46;13.90;81.20
40816;DHT22;26535;48.788;9.214;2024-03-02T17:46:40;13.80;81.30
40816;DHT22;26535;48.788;9.214;2024-03-02T17:49:06;13.70;81.60
40816;DHT22;26535;48.788;9.214;2024-03-02T17:51:32;13.60;82.30
40816;DHT22;26535;48.788;9.214;2024-03-02T17:53:58;13.50;82.90
40816;DHT22;26535;48.788;9.214;2024-03-02T17:56:23;13.40;83.80
40816;DHT22;26535;48.788;9.214;2024-03-02T17:58:49;13.40;84.10
40816;DHT22;26535;48.788;9.214;2024-03-02T18:01:15;13.40;84.60
40816;DHT22;26535;48.788;9.214;2024-03-02T18:03:41;13.30;84.70
40816;DHT22;26535;48.788;9.214;2024-03-02T18:06:07;13.30;85.30
40816;DHT22;26535;48.788;9.214;2024-03-02T18:08:34;13.30;85.80
40816;DHT22;26535;48.788;9.214;2024-03-02T18:11:00;13.30;86.20
40816;DHT22;26535;48.788;9.214;2024-03-02T18:13:26;13.30;86.60
40816;DHT22;26535;48.788;9.214;2024-03-02T18:15:52;13.30;86.70
40816;DHT22;26535;48.788;9.214;2024-03-02T18:18:18;13.30;87.10
40816;DHT22;26535;48.788;9.214;2024-03-02T18:20:44;13.30;87.10
40816;DHT22;26535;48.788;9.214;2024-03-02T18:23:13;13.20;87.40
40816;DHT22;26535;48.788;9.214;2024-03-02T18:25:38;13.20;87.60
40816;DHT22;26535;48.788;9.214;2024-03-02T18:28:06;13.20;87.80
40816;DHT22;26535;48.788;9.214;2024-03-02T18:30:32;13.20;88.10
40816;DHT22;26535;48.788;9.214;2024-03-02T18:32:58;13.10;88.50
40816;DHT22;26535;48.788;9.214;2024-03-02T18:35:23;13.10;88.80
40816;DHT22;26535;48.788;9.214;2024-03-02T18:37:49;13.10;88.70
40816;DHT22;26535;48.788;9.214;2024-03-02T18:40:15;13.00;89.30
40816;DHT22;26535;48.788;9.214;2024-03-02T18:42:40;13.00;89.40
40816;DHT22;26535;48.788;9.214;2024-03-02T18:45:07;12.90;90.10
40816;DHT22;26535;48.788;9.214;2024-03-02T18:47:56;13.00;89.90
40816;DHT22;26535;48.788;9.214;2024-03-02T18:50:37;12.90;90.10
40816;DHT22;26535;48.788;9.214;2024-03-02T18:53:03;12.90;90.00
40816;DHT22;26535;48.788;9.214;2024-03-02T18:55:29;12.80;90.20
40816;DHT22;26535;48.788;9.214;2024-03-02T18:57:55;12.80;90.30
40816;DHT22;26535;48.788;9.214;2024-03-02T19:00:22;12.80;90.40
40816;DHT22;26535;48.788;9.214;2024-03-02T19:02:48;12.80;90.50
40816;DHT22;26535;48.788;9.214;2024-03-02T19:05:14;12.80;90.50
40816;DHT22;26535;48.788;9.214;2024-03-02T19:07:39;12.70;90.60
40816;DHT22;26535;48.788;9.214;2024-03-02T19:10:09;12.60;90.80
40816;DHT22;26535;48.788;9.214;2024-03-02T19:12:36;12.60;90.90
40816;DHT22;26535;48.788;9.214;2024-03-02T19:15:05;12.50;91.00
40816;DHT22;26535;48.788;9.214;2024-03-02T19:17:31;12.40;91.20
40816;DHT22;26535;48.788;9.214;2024-03-02T19:19:57;12.30;91.30
40816;DHT22;26535;48.788;9.214;2024-03-02T19:22:23;12.40;91.40
40816;DHT22;26535;48.788;9.214;2024-03-02T19:24:49;12.30;91.40
40816;DHT22;26535;48.788;9.214;2024-03-02T19:27:15;12.20;91.60
40816;DHT22;26535;48.788;9.214;2024-03-02T19:29:41;12.20;91.80
40816;DHT22;26535;48.788;9.214;2024-03-02T19:32:06;12.10;91.90
40816;DHT22;26535;48.788;9.214;2024-03-02T19:34:33;12.00;92.10
40816;DHT22;26535;48.788;9.214;2024-03-02T19:36:58;11.90;92.20
40816;DHT22;26535;48.788;9.214;2024-03-02T19:39:25;11.90;92.50
40816;DHT22;26535;48.788;9.214;2024-03-02T19:41:53;11.80;92.50
40816;DHT22;26535;48.788;9.214;2024-03-02T19:44:19;11.70;92.70
40816;DHT22;26535;48.788;9.214;2024-03-02T19:46:45;11.70;92.80
40816;DHT22;26535;48.788;9.214;2024-03-02T19:49:11;11.60;92.90
40816;DHT22;26535;48.788;9.214;2024-03-02T19:51:40;11.50;93.10
40816;DHT22;26535;48.788;9.214;2024-03-02T19:54:08;11.40;93.20
40816;DHT22;26535;48.788;9.214;2024-03-02T19:56:34;11.40;93.40
40816;DHT22;26535;48.788;9.214;2024-03-02T19:59:01;11.30;93.60
40816;DHT22;26535;48.788;9.214;2024-03-02T20:01:33;11.20;93.80
40816;DHT22;26535;48.788;9.214;2024-03-02T20:03:59;11.10;93.90
40816;DHT22;26535;48.788;9.214;2024-03-02T20:06:24;11.10;94.10
40816;DHT22;26535;48.788;9.214;2024-03-02T20:08:50;11.00;94.20
40816;DHT22;26535;48.788;9.214;2024-03-02T20:11:16;10.90;94.40
40816;DHT22;26535;48.788;9.214;2024-03-02T20:13:42;10.90;94.50
40816;DHT22;26535;48.788;9.214;2024-03-02T20:16:08;10.90;94.70
40816;DHT22;26535;48.788;9.214;2024-03-02T20:18:34;10.80;94.80
40816;DHT22;26535;48.788;9.214;2024-03-02T20:21:00;10.80;94.90
40816;DHT22;26535;48.788;9.214;2024-03-02T20:23:32;10.70;95.10
40816;DHT22;26535;48.788;9.214;2024-03-02T20:25:57;10.60;95.10
40816;DHT22;26535;48.788;9.214;2024-03-02T20:28:24;10.60;95.40
40816;DHT22;26535;48.788;9.214;2024-03-02T20:30:50;10.60;95.50
40816;DHT22;26535;48.788;9.214;2024-03-02T20:33:15;10.50;95.70
40816;DHT22;26535;48.788;9.214;2024-03-02T20:35:41;10.50;95.70
40816;DHT22;26535;48.788;9.214;2024-03-02T20:38:09;10.50;95.70
40816;DHT22;26535;48.788;9.214;2024-03-02T20:40:35;10.40;95.90
40816;DHT22;26535;48.788;9.214;2024-03-02T20:43:01;10.40;95.90
40816;DHT22;26535;48.788;9.214;2024-03-02T20:45:28;10.40;96.10
40816;DHT22;26535;48.788;9.214;2024-03-02T20:47:54;10.40;96.30
40816;DHT22;26535;48.788;9.214;2024-03-02T20:50:20;10.30;96.30
40816;DHT22;26535;48.788;9.214;2024-03-02T20:52:46;10.30;96.50
40816;DHT22;26535;48.788;9.214;2024-03-02T20:55:13;10.30;96.40
40816;DHT22;26535;48.788;9.214;2024-03-02T20:57:39;10.20;96.60
40816;DHT22;26535;48.788;9.214;2024-03-02T21:00:05;10.10;96.90
40816;DHT22;26535;48.788;9.214;2024-03-02T21:02:33;10.10;97.10
40816;DHT22;26535;48.788;9.214;2024-03-02T21:05:00;9.90;97.20
40816;DHT22;26535;48.788;9.214;2024-03-02T21:07:30;9.90;97.40
40816;DHT22;26535;48.788;9.214;2024-03-02T21:10:00;9.90;97.90
40816;DHT22;26535;48.788;9.214;2024-03-02T21:12:26;9.80;97.90
40816;DHT22;26535;48.788;9.214;2024-03-02T21:14:52;9.80;98.10
40816;DHT22;26535;48.788;9.214;2024-03-02T21:17:18;9.80;98.30
40816;DHT22;26535;48.788;9.214;2024-03-02T21:19:43;9.80;98.40
40816;DHT22;26535;48.788;9.214;2024-03-02T21:22:09;9.80;98.40
40816;DHT22;26535;48.788;9.214;2024-03-02T21:24:35;9.80;98.50